Decoded Metar for KWST (WESTERLY in RI, USA) (IATA:WST) | Meteo·Mobile Aviation Weather
aviador You're here:

KWST Decoded Metar

WESTERLY in RI, USA
Report Time2019-10-20 22:53:00
UTC Time2019-10-20 23:40:08
Flight Rules vfr VFR
WindCalm
Visibility9999 m
Phenomena:Light Rain
Clouds:Scattered 090 Hf
Broken 110 Hf
Expected CloudBase > 1,200 ft AGL from Temp-Dew spread
Ceiling11,000 ft
Temp14°C (ISA -1)
Dew Point11°C (82% RH)
QNH1017 hPa
Density Alt7 ft
Elevation69 ft
Report Wrong Elevation
Raw Report
KWST 202253Z AUTO 00000KT 10SM -RA SCT090 BKN110 14/11 A3004 RMK
AO2 RAB43 SLP172 P0000 T01440111=

Extra information for KWST:More info

Metar Taf Metar & Taf Last 4 Metars F.Rules Stats Wind Profile Meteogram Temp Stats Airport Information Weather charts Add Link Nearby VenuesMetar ALERT Operation Metar Decoded Social comments

AIRNAV info for KWST